sensor_id;sensor_type;location;lat;lon;timestamp;P1;durP1;ratioP1;P2;durP2;ratioP2
17842;SDS011;69286;48.222;16.332;2024-03-08T00:00:33;65.33;;;29.43;;
17842;SDS011;69286;48.222;16.332;2024-03-08T00:03:01;58.03;;;27.87;;
17842;SDS011;69286;48.222;16.332;2024-03-08T00:05:29;64.70;;;30.10;;
17842;SDS011;69286;48.222;16.332;2024-03-08T00:07:56;58.97;;;29.73;;
17842;SDS011;69286;48.222;16.332;2024-03-08T00:10:25;63.43;;;30.37;;
17842;SDS011;69286;48.222;16.332;2024-03-08T00:12:53;71.67;;;31.23;;
17842;SDS011;69286;48.222;16.332;2024-03-08T00:15:21;65.80;;;29.73;;
17842;SDS011;69286;48.222;16.332;2024-03-08T00:17:48;62.93;;;30.23;;
17842;SDS011;69286;48.222;16.332;2024-03-08T00:20:16;63.73;;;30.47;;
17842;SDS011;69286;48.222;16.332;2024-03-08T00:22:44;67.40;;;31.27;;
17842;SDS011;69286;48.222;16.332;2024-03-08T00:25:11;63.40;;;29.67;;
17842;SDS011;69286;48.222;16.332;2024-03-08T00:27:38;63.93;;;30.67;;
17842;SDS011;69286;48.222;16.332;2024-03-08T00:30:06;65.33;;;31.63;;
17842;SDS011;69286;48.222;16.332;2024-03-08T00:32:34;56.23;;;28.57;;
17842;SDS011;69286;48.222;16.332;2024-03-08T00:35:02;64.63;;;30.43;;
17842;SDS011;69286;48.222;16.332;2024-03-08T00:37:30;60.27;;;30.43;;
17842;SDS011;69286;48.222;16.332;2024-03-08T00:39:59;69.47;;;31.43;;
17842;SDS011;69286;48.222;16.332;2024-03-08T00:42:26;64.13;;;31.57;;
17842;SDS011;69286;48.222;16.332;2024-03-08T00:44:53;68.93;;;31.23;;
17842;SDS011;69286;48.222;16.332;2024-03-08T00:47:20;65.10;;;31.33;;
17842;SDS011;69286;48.222;16.332;2024-03-08T00:49:47;68.17;;;33.23;;
17842;SDS011;69286;48.222;16.332;2024-03-08T00:52:14;66.97;;;31.83;;
17842;SDS011;69286;48.222;16.332;2024-03-08T00:54:44;62.90;;;30.70;;
17842;SDS011;69286;48.222;16.332;2024-03-08T00:57:11;66.63;;;30.53;;
17842;SDS011;69286;48.222;16.332;2024-03-08T00:59:38;64.97;;;30.63;;
17842;SDS011;69286;48.222;16.332;2024-03-08T01:02:05;66.00;;;31.27;;
17842;SDS011;69286;48.222;16.332;2024-03-08T01:04:34;62.07;;;30.63;;
17842;SDS011;69286;48.222;16.332;2024-03-08T01:07:01;66.30;;;32.40;;
17842;SDS011;69286;48.222;16.332;2024-03-08T01:09:28;68.27;;;31.17;;
17842;SDS011;69286;48.222;16.332;2024-03-08T01:11:56;61.77;;;30.90;;
17842;SDS011;69286;48.222;16.332;2024-03-08T01:14:23;59.03;;;30.47;;
17842;SDS011;69286;48.222;16.332;2024-03-08T01:16:51;64.43;;;31.37;;
17842;SDS011;69286;48.222;16.332;2024-03-08T01:19:20;64.13;;;31.83;;
17842;SDS011;69286;48.222;16.332;2024-03-08T01:21:47;68.57;;;31.03;;
17842;SDS011;69286;48.222;16.332;2024-03-08T01:24:13;68.77;;;32.07;;
17842;SDS011;69286;48.222;16.332;2024-03-08T01:26:40;61.10;;;30.93;;
17842;SDS011;69286;48.222;16.332;2024-03-08T01:29:09;66.13;;;32.03;;
17842;SDS011;69286;48.222;16.332;2024-03-08T01:31:36;65.47;;;31.43;;
17842;SDS011;69286;48.222;16.332;2024-03-08T01:34:03;74.13;;;32.63;;
17842;SDS011;69286;48.222;16.332;2024-03-08T01:36:30;67.23;;;32.70;;
17842;SDS011;69286;48.222;16.332;2024-03-08T01:38:57;60.87;;;30.93;;
17842;SDS011;69286;48.222;16.332;2024-03-08T01:41:24;70.43;;;31.70;;
17842;SDS011;69286;48.222;16.332;2024-03-08T01:43:54;74.00;;;32.13;;
17842;SDS011;69286;48.222;16.332;2024-03-08T01:46:23;69.43;;;31.10;;
17842;SDS011;69286;48.222;16.332;2024-03-08T01:48:53;65.10;;;31.00;;
17842;SDS011;69286;48.222;16.332;2024-03-08T01:51:20;67.67;;;31.70;;
17842;SDS011;69286;48.222;16.332;2024-03-08T01:53:48;61.73;;;30.33;;
17842;SDS011;69286;48.222;16.332;2024-03-08T01:56:15;59.33;;;29.53;;
17842;SDS011;69286;48.222;16.332;2024-03-08T01:58:43;70.43;;;33.07;;
17842;SDS011;69286;48.222;16.332;2024-03-08T02:01:12;72.70;;;31.17;;
17842;SDS011;69286;48.222;16.332;2024-03-08T02:03:41;68.70;;;31.87;;
17842;SDS011;69286;48.222;16.332;2024-03-08T02:06:09;64.07;;;31.30;;
17842;SDS011;69286;48.222;16.332;2024-03-08T02:08:38;67.87;;;31.23;;
17842;SDS011;69286;48.222;16.332;2024-03-08T02:11:05;69.67;;;31.17;;
17842;SDS011;69286;48.222;16.332;2024-03-08T02:13:32;64.63;;;30.53;;
17842;SDS011;69286;48.222;16.332;2024-03-08T02:16:00;64.63;;;32.50;;
17842;SDS011;69286;48.222;16.332;2024-03-08T02:18:28;64.77;;;30.20;;
17842;SDS011;69286;48.222;16.332;2024-03-08T02:20:57;75.40;;;33.53;;
17842;SDS011;69286;48.222;16.332;2024-03-08T02:23:25;71.13;;;32.07;;
17842;SDS011;69286;48.222;16.332;2024-03-08T02:25:53;65.13;;;31.03;;
17842;SDS011;69286;48.222;16.332;2024-03-08T02:28:21;72.00;;;32.97;;
17842;SDS011;69286;48.222;16.332;2024-03-08T02:30:50;66.80;;;32.20;;
17842;SDS011;69286;48.222;16.332;2024-03-08T02:33:19;67.60;;;30.87;;
17842;SDS011;69286;48.222;16.332;2024-03-08T02:35:47;67.07;;;31.20;;
17842;SDS011;69286;48.222;16.332;2024-03-08T02:38:17;65.97;;;32.07;;
17842;SDS011;69286;48.222;16.332;2024-03-08T02:40:46;68.17;;;32.03;;
17842;SDS011;69286;48.222;16.332;2024-03-08T02:43:14;73.77;;;33.63;;
17842;SDS011;69286;48.222;16.332;2024-03-08T02:45:42;69.27;;;32.07;;
17842;SDS011;69286;48.222;16.332;2024-03-08T02:48:11;68.67;;;33.30;;
17842;SDS011;69286;48.222;16.332;2024-03-08T02:50:38;70.60;;;32.07;;
17842;SDS011;69286;48.222;16.332;2024-03-08T02:53:08;63.60;;;31.43;;
17842;SDS011;69286;48.222;16.332;2024-03-08T02:55:36;73.90;;;33.67;;
17842;SDS011;69286;48.222;16.332;2024-03-08T02:58:04;74.43;;;33.60;;
17842;SDS011;69286;48.222;16.332;2024-03-08T03:00:33;73.67;;;33.90;;
17842;SDS011;69286;48.222;16.332;2024-03-08T03:03:00;68.73;;;31.33;;
17842;SDS011;69286;48.222;16.332;2024-03-08T03:05:28;73.07;;;33.33;;
17842;SDS011;69286;48.222;16.332;2024-03-08T03:07:56;68.03;;;32.20;;
17842;SDS011;69286;48.222;16.332;2024-03-08T03:10:23;74.57;;;33.77;;
17842;SDS011;69286;48.222;16.332;2024-03-08T03:12:52;70.17;;;33.03;;
17842;SDS011;69286;48.222;16.332;2024-03-08T03:15:19;68.13;;;31.60;;
17842;SDS011;69286;48.222;16.332;2024-03-08T03:17:46;68.37;;;32.07;;
17842;SDS011;69286;48.222;16.332;2024-03-08T03:20:16;71.70;;;33.47;;
17842;SDS011;69286;48.222;16.332;2024-03-08T03:22:48;76.20;;;35.00;;
17842;SDS011;69286;48.222;16.332;2024-03-08T03:25:17;69.10;;;31.67;;
17842;SDS011;69286;48.222;16.332;2024-03-08T03:27:51;68.50;;;32.17;;
17842;SDS011;69286;48.222;16.332;2024-03-08T03:30:21;69.27;;;33.63;;
17842;SDS011;69286;48.222;16.332;2024-03-08T03:32:48;68.63;;;33.03;;
17842;SDS011;69286;48.222;16.332;2024-03-08T03:35:16;68.90;;;33.07;;
17842;SDS011;69286;48.222;16.332;2024-03-08T03:37:43;75.57;;;34.97;;
17842;SDS011;69286;48.222;16.332;2024-03-08T03:40:16;70.63;;;33.37;;
17842;SDS011;69286;48.222;16.332;2024-03-08T03:42:44;66.77;;;32.10;;
17842;SDS011;69286;48.222;16.332;2024-03-08T03:45:13;70.07;;;32.07;;
17842;SDS011;69286;48.222;16.332;2024-03-08T03:47:45;71.53;;;33.63;;
17842;SDS011;69286;48.222;16.332;2024-03-08T03:50:12;66.00;;;33.07;;
17842;SDS011;69286;48.222;16.332;2024-03-08T03:52:39;64.13;;;32.07;;
17842;SDS011;69286;48.222;16.332;2024-03-08T03:55:07;68.53;;;32.30;;
17842;SDS011;69286;48.222;16.332;2024-03-08T03:57:37;74.57;;;35.43;;
17842;SDS011;69286;48.222;16.332;2024-03-08T04:00:04;71.73;;;33.83;;
17842;SDS011;69286;48.222;16.332;2024-03-08T04:02:37;69.33;;;33.10;;
17842;SDS011;69286;48.222;16.332;2024-03-08T04:05:04;74.50;;;35.27;;
17842;SDS011;69286;48.222;16.332;2024-03-08T04:07:32;67.17;;;32.13;;
17842;SDS011;69286;48.222;16.332;2024-03-08T04:10:00;68.57;;;32.00;;
17842;SDS011;69286;48.222;16.332;2024-03-08T04:12:27;72.33;;;32.67;;
17842;SDS011;69286;48.222;16.332;2024-03-08T04:14:55;62.33;;;30.63;;
17842;SDS011;69286;48.222;16.332;2024-03-08T04:17:22;72.97;;;33.37;;
17842;SDS011;69286;48.222;16.332;2024-03-08T04:19:51;70.27;;;33.43;;
17842;SDS011;69286;48.222;16.332;2024-03-08T04:22:19;71.67;;;34.07;;
17842;SDS011;69286;48.222;16.332;2024-03-08T04:24:46;64.47;;;31.33;;
17842;SDS011;69286;48.222;16.332;2024-03-08T04:27:13;72.33;;;33.97;;
17842;SDS011;69286;48.222;16.332;2024-03-08T04:29:40;66.07;;;31.97;;
17842;SDS011;69286;48.222;16.332;2024-03-08T04:32:08;64.60;;;32.03;;
17842;SDS011;69286;48.222;16.332;2024-03-08T04:34:36;62.87;;;31.20;;
17842;SDS011;69286;48.222;16.332;2024-03-08T04:37:04;68.50;;;32.67;;
17842;SDS011;69286;48.222;16.332;2024-03-08T04:39:31;65.07;;;32.10;;
17842;SDS011;69286;48.222;16.332;2024-03-08T04:41:59;66.93;;;30.93;;
17842;SDS011;69286;48.222;16.332;2024-03-08T04:44:29;67.03;;;31.20;;
17842;SDS011;69286;48.222;16.332;2024-03-08T04:46:56;64.87;;;32.50;;
17842;SDS011;69286;48.222;16.332;2024-03-08T04:49:25;73.67;;;32.33;;
17842;SDS011;69286;48.222;16.332;2024-03-08T04:51:53;67.03;;;32.10;;
17842;SDS011;69286;48.222;16.332;2024-03-08T04:54:21;66.50;;;32.40;;
17842;SDS011;69286;48.222;16.332;2024-03-08T04:56:49;74.53;;;34.40;;
17842;SDS011;69286;48.222;16.332;2024-03-08T04:59:16;65.47;;;31.73;;
17842;SDS011;69286;48.222;16.332;2024-03-08T05:01:43;69.50;;;31.93;;
17842;SDS011;69286;48.222;16.332;2024-03-08T05:04:10;70.03;;;32.17;;
17842;SDS011;69286;48.222;16.332;2024-03-08T05:06:37;68.20;;;31.73;;
17842;SDS011;69286;48.222;16.332;2024-03-08T05:09:04;66.53;;;32.20;;
17842;SDS011;69286;48.222;16.332;2024-03-08T05:11:40;69.67;;;33.17;;
17842;SDS011;69286;48.222;16.332;2024-03-08T05:14:07;71.20;;;32.97;;
17842;SDS011;69286;48.222;16.332;2024-03-08T05:16:35;77.60;;;32.53;;
17842;SDS011;69286;48.222;16.332;2024-03-08T05:19:02;67.70;;;32.70;;
17842;SDS011;69286;48.222;16.332;2024-03-08T05:21:29;72.93;;;34.40;;
17842;SDS011;69286;48.222;16.332;2024-03-08T05:23:56;72.93;;;33.07;;
17842;SDS011;69286;48.222;16.332;2024-03-08T05:26:23;78.47;;;34.33;;
17842;SDS011;69286;48.222;16.332;2024-03-08T05:28:52;68.20;;;32.33;;
17842;SDS011;69286;48.222;16.332;2024-03-08T05:31:19;66.87;;;31.37;;
17842;SDS011;69286;48.222;16.332;2024-03-08T05:33:48;73.10;;;32.67;;
17842;SDS011;69286;48.222;16.332;2024-03-08T05:36:15;68.47;;;32.67;;
17842;SDS011;69286;48.222;16.332;2024-03-08T05:38:43;71.33;;;33.63;;
17842;SDS011;69286;48.222;16.332;2024-03-08T05:41:10;72.80;;;33.47;;
17842;SDS011;69286;48.222;16.332;2024-03-08T05:43:38;67.30;;;32.37;;
17842;SDS011;69286;48.222;16.332;2024-03-08T05:46:08;72.03;;;33.73;;
17842;SDS011;69286;48.222;16.332;2024-03-08T05:48:36;70.83;;;31.87;;
17842;SDS011;69286;48.222;16.332;2024-03-08T05:51:04;72.57;;;34.67;;
17842;SDS011;69286;48.222;16.332;2024-03-08T05:53:31;70.97;;;33.80;;
17842;SDS011;69286;48.222;16.332;2024-03-08T05:55:58;72.60;;;35.57;;
17842;SDS011;69286;48.222;16.332;2024-03-08T05:58:27;71.83;;;33.30;;
17842;SDS011;69286;48.222;16.332;2024-03-08T06:00:56;71.07;;;32.77;;
17842;SDS011;69286;48.222;16.332;2024-03-08T06:03:25;69.13;;;34.43;;
17842;SDS011;69286;48.222;16.332;2024-03-08T06:05:52;70.43;;;33.63;;
17842;SDS011;69286;48.222;16.332;2024-03-08T06:08:19;63.33;;;32.00;;
17842;SDS011;69286;48.222;16.332;2024-03-08T06:10:46;63.50;;;32.67;;
17842;SDS011;69286;48.222;16.332;2024-03-08T06:13:17;63.87;;;32.00;;
17842;SDS011;69286;48.222;16.332;2024-03-08T06:15:44;71.30;;;34.20;;
17842;SDS011;69286;48.222;16.332;2024-03-08T06:18:12;67.73;;;32.20;;
17842;SDS011;69286;48.222;16.332;2024-03-08T06:20:41;67.97;;;32.87;;
17842;SDS011;69286;48.222;16.332;2024-03-08T06:23:11;72.47;;;34.03;;
17842;SDS011;69286;48.222;16.332;2024-03-08T06:25:39;71.57;;;34.50;;
17842;SDS011;69286;48.222;16.332;2024-03-08T06:28:07;70.37;;;34.57;;
17842;SDS011;69286;48.222;16.332;2024-03-08T06:30:34;69.50;;;33.57;;
17842;SDS011;69286;48.222;16.332;2024-03-08T06:33:01;79.70;;;35.80;;
17842;SDS011;69286;48.222;16.332;2024-03-08T06:35:29;71.60;;;34.53;;
17842;SDS011;69286;48.222;16.332;2024-03-08T06:37:58;72.40;;;33.27;;
17842;SDS011;69286;48.222;16.332;2024-03-08T06:40:26;76.23;;;35.77;;
17842;SDS011;69286;48.222;16.332;2024-03-08T06:42:53;74.73;;;34.60;;
17842;SDS011;69286;48.222;16.332;2024-03-08T06:45:23;73.13;;;34.63;;
17842;SDS011;69286;48.222;16.332;2024-03-08T06:47:51;74.70;;;35.13;;
17842;SDS011;69286;48.222;16.332;2024-03-08T06:50:20;73.13;;;33.87;;
17842;SDS011;69286;48.222;16.332;2024-03-08T06:52:47;75.07;;;35.47;;
17842;SDS011;69286;48.222;16.332;2024-03-08T06:55:20;72.33;;;34.13;;
17842;SDS011;69286;48.222;16.332;2024-03-08T06:57:47;67.20;;;32.17;;
17842;SDS011;69286;48.222;16.332;2024-03-08T07:00:15;78.17;;;34.77;;
17842;SDS011;69286;48.222;16.332;2024-03-08T07:02:46;69.83;;;33.80;;
17842;SDS011;69286;48.222;16.332;2024-03-08T07:05:14;67.90;;;32.67;;
17842;SDS011;69286;48.222;16.332;2024-03-08T07:07:45;77.53;;;33.37;;
17842;SDS011;69286;48.222;16.332;2024-03-08T07:10:13;74.30;;;34.80;;
17842;SDS011;69286;48.222;16.332;2024-03-08T07:12:42;71.23;;;33.07;;
17842;SDS011;69286;48.222;16.332;2024-03-08T07:15:09;69.40;;;34.27;;
17842;SDS011;69286;48.222;16.332;2024-03-08T07:17:38;71.50;;;34.23;;
17842;SDS011;69286;48.222;16.332;2024-03-08T07:20:06;78.93;;;35.20;;
17842;SDS011;69286;48.222;16.332;2024-03-08T07:22:37;74.47;;;33.33;;
17842;SDS011;69286;48.222;16.332;2024-03-08T07:25:05;70.07;;;33.13;;
17842;SDS011;69286;48.222;16.332;2024-03-08T07:27:49;69.07;;;35.73;;
17842;SDS011;69286;48.222;16.332;2024-03-08T07:30:17;75.73;;;35.40;;
17842;SDS011;69286;48.222;16.332;2024-03-08T07:32:58;74.70;;;33.67;;
17842;SDS011;69286;48.222;16.332;2024-03-08T07:35:28;67.90;;;33.23;;
17842;SDS011;69286;48.222;16.332;2024-03-08T07:37:56;71.87;;;33.73;;
17842;SDS011;69286;48.222;16.332;2024-03-08T07:40:25;73.23;;;35.13;;
17842;SDS011;69286;48.222;16.332;2024-03-08T07:42:53;72.43;;;32.97;;
17842;SDS011;69286;48.222;16.332;2024-03-08T07:45:20;66.00;;;34.13;;
17842;SDS011;69286;48.222;16.332;2024-03-08T07:47:48;73.67;;;34.03;;
17842;SDS011;69286;48.222;16.332;2024-03-08T07:50:16;72.77;;;35.07;;
17842;SDS011;69286;48.222;16.332;2024-03-08T07:52:44;73.13;;;35.77;;
17842;SDS011;69286;48.222;16.332;2024-03-08T07:55:12;68.23;;;33.57;;
17842;SDS011;69286;48.222;16.332;2024-03-08T07:57:41;72.00;;;34.50;;
17842;SDS011;69286;48.222;16.332;2024-03-08T08:00:11;72.23;;;34.63;;
17842;SDS011;69286;48.222;16.332;2024-03-08T08:02:42;72.10;;;34.30;;
17842;SDS011;69286;48.222;16.332;2024-03-08T08:05:10;78.67;;;33.23;;
17842;SDS011;69286;48.222;16.332;2024-03-08T08:07:38;74.30;;;35.20;;
17842;SDS011;69286;48.222;16.332;2024-03-08T08:10:08;74.33;;;32.97;;
17842;SDS011;69286;48.222;16.332;2024-03-08T08:12:41;73.53;;;34.57;;
17842;SDS011;69286;48.222;16.332;2024-03-08T08:15:10;70.50;;;34.27;;
17842;SDS011;69286;48.222;16.332;2024-03-08T08:17:37;72.03;;;33.87;;
17842;SDS011;69286;48.222;16.332;2024-03-08T08:20:05;70.37;;;32.37;;
17842;SDS011;69286;48.222;16.332;2024-03-08T08:22:33;83.77;;;36.40;;
17842;SDS011;69286;48.222;16.332;2024-03-08T08:25:00;86.70;;;36.83;;
17842;SDS011;69286;48.222;16.332;2024-03-08T08:27:27;94.53;;;37.73;;
17842;SDS011;69286;48.222;16.332;2024-03-08T08:29:54;88.93;;;37.60;;
17842;SDS011;69286;48.222;16.332;2024-03-08T08:32:23;82.40;;;37.07;;
17842;SDS011;69286;48.222;16.332;2024-03-08T08:34:50;79.53;;;36.20;;
17842;SDS011;69286;48.222;16.332;2024-03-08T08:37:17;88.43;;;36.07;;
17842;SDS011;69286;48.222;16.332;2024-03-08T08:39:45;78.03;;;34.00;;
17842;SDS011;69286;48.222;16.332;2024-03-08T08:42:12;85.13;;;37.00;;
17842;SDS011;69286;48.222;16.332;2024-03-08T08:44:39;92.53;;;36.73;;
17842;SDS011;69286;48.222;16.332;2024-03-08T08:47:06;88.23;;;36.27;;
17842;SDS011;69286;48.222;16.332;2024-03-08T08:49:34;92.77;;;38.97;;
17842;SDS011;69286;48.222;16.332;2024-03-08T08:52:01;93.07;;;39.00;;
17842;SDS011;69286;48.222;16.332;2024-03-08T08:54:29;87.80;;;37.80;;
17842;SDS011;69286;48.222;16.332;2024-03-08T08:56:56;85.60;;;36.23;;
17842;SDS011;69286;48.222;16.332;2024-03-08T08:59:24;84.27;;;37.17;;
17842;SDS011;69286;48.222;16.332;2024-03-08T09:01:51;91.00;;;39.87;;
17842;SDS011;69286;48.222;16.332;2024-03-08T09:04:19;99.57;;;39.83;;
17842;SDS011;69286;48.222;16.332;2024-03-08T09:06:49;97.50;;;37.33;;
17842;SDS011;69286;48.222;16.332;2024-03-08T09:09:16;101.10;;;37.77;;
17842;SDS011;69286;48.222;16.332;2024-03-08T09:11:44;91.20;;;36.63;;
17842;SDS011;69286;48.222;16.332;2024-03-08T09:14:11;100.77;;;38.00;;
17842;SDS011;69286;48.222;16.332;2024-03-08T09:16:39;100.53;;;37.20;;
17842;SDS011;69286;48.222;16.332;2024-03-08T09:19:06;92.53;;;38.60;;
17842;SDS011;69286;48.222;16.332;2024-03-08T09:21:36;95.10;;;36.93;;
17842;SDS011;69286;48.222;16.332;2024-03-08T09:24:06;94.73;;;38.67;;
17842;SDS011;69286;48.222;16.332;2024-03-08T09:26:33;115.13;;;40.83;;
17842;SDS011;69286;48.222;16.332;2024-03-08T09:29:00;106.50;;;38.10;;
17842;SDS011;69286;48.222;16.332;2024-03-08T09:31:28;106.17;;;38.47;;
17842;SDS011;69286;48.222;16.332;2024-03-08T09:33:55;107.47;;;39.67;;
17842;SDS011;69286;48.222;16.332;2024-03-08T09:36:23;107.70;;;38.13;;
17842;SDS011;69286;48.222;16.332;2024-03-08T09:38:50;95.83;;;36.93;;
17842;SDS011;69286;48.222;16.332;2024-03-08T09:41:19;104.23;;;38.30;;
17842;SDS011;69286;48.222;16.332;2024-03-08T09:43:47;96.53;;;35.53;;
17842;SDS011;69286;48.222;16.332;2024-03-08T09:46:14;94.03;;;35.33;;
17842;SDS011;69286;48.222;16.332;2024-03-08T09:48:44;97.67;;;36.20;;
17842;SDS011;69286;48.222;16.332;2024-03-08T09:51:12;96.03;;;35.87;;
17842;SDS011;69286;48.222;16.332;2024-03-08T09:53:40;94.23;;;35.80;;
17842;SDS011;69286;48.222;16.332;2024-03-08T09:56:08;102.07;;;36.40;;
17842;SDS011;69286;48.222;16.332;2024-03-08T09:58:38;95.80;;;36.37;;
17842;SDS011;69286;48.222;16.332;2024-03-08T10:01:22;90.87;;;36.43;;
17842;SDS011;69286;48.222;16.332;2024-03-08T10:03:51;89.27;;;34.43;;
17842;SDS011;69286;48.222;16.332;2024-03-08T10:06:22;97.97;;;37.17;;
17842;SDS011;69286;48.222;16.332;2024-03-08T10:08:49;77.57;;;33.03;;
17842;SDS011;69286;48.222;16.332;2024-03-08T10:11:17;81.93;;;31.43;;
17842;SDS011;69286;48.222;16.332;2024-03-08T10:13:46;82.13;;;33.30;;
17842;SDS011;69286;48.222;16.332;2024-03-08T10:16:15;72.57;;;29.90;;
17842;SDS011;69286;48.222;16.332;2024-03-08T10:18:44;73.83;;;30.17;;
17842;SDS011;69286;48.222;16.332;2024-03-08T10:21:12;64.10;;;28.43;;
17842;SDS011;69286;48.222;16.332;2024-03-08T10:23:40;73.07;;;29.40;;
17842;SDS011;69286;48.222;16.332;2024-03-08T10:26:09;81.73;;;32.57;;
17842;SDS011;69286;48.222;16.332;2024-03-08T10:28:39;77.53;;;31.03;;
17842;SDS011;69286;48.222;16.332;2024-03-08T10:31:07;79.07;;;32.27;;
17842;SDS011;69286;48.222;16.332;2024-03-08T10:33:34;79.93;;;29.53;;
17842;SDS011;69286;48.222;16.332;2024-03-08T10:36:03;72.90;;;29.00;;
17842;SDS011;69286;48.222;16.332;2024-03-08T10:38:32;68.77;;;28.17;;
17842;SDS011;69286;48.222;16.332;2024-03-08T10:41:00;70.23;;;27.07;;
17842;SDS011;69286;48.222;16.332;2024-03-08T10:43:31;60.77;;;26.50;;
17842;SDS011;69286;48.222;16.332;2024-03-08T10:46:10;70.20;;;28.27;;
17842;SDS011;69286;48.222;16.332;2024-03-08T10:48:49;69.83;;;27.90;;
17842;SDS011;69286;48.222;16.332;2024-03-08T10:51:16;58.33;;;26.33;;
17842;SDS011;69286;48.222;16.332;2024-03-08T10:53:45;67.10;;;27.23;;
17842;SDS011;69286;48.222;16.332;2024-03-08T10:56:14;64.67;;;26.17;;
17842;SDS011;69286;48.222;16.332;2024-03-08T10:58:41;55.70;;;25.03;;
17842;SDS011;69286;48.222;16.332;2024-03-08T11:01:11;61.90;;;25.80;;
17842;SDS011;69286;48.222;16.332;2024-03-08T11:03:46;56.77;;;25.17;;
17842;SDS011;69286;48.222;16.332;2024-03-08T11:06:19;57.17;;;24.87;;
17842;SDS011;69286;48.222;16.332;2024-03-08T11:08:49;55.50;;;24.90;;
17842;SDS011;69286;48.222;16.332;2024-03-08T11:11:23;46.97;;;22.40;;
17842;SDS011;69286;48.222;16.332;2024-03-08T11:13:55;46.33;;;22.17;;
17842;SDS011;69286;48.222;16.332;2024-03-08T11:16:37;53.27;;;22.80;;
17842;SDS011;69286;48.222;16.332;2024-03-08T11:19:23;48.10;;;21.17;;
17842;SDS011;69286;48.222;16.332;2024-03-08T11:22:02;49.63;;;22.20;;
17842;SDS011;69286;48.222;16.332;2024-03-08T11:24:36;45.57;;;21.80;;
17842;SDS011;69286;48.222;16.332;2024-03-08T11:27:07;48.23;;;21.03;;
17842;SDS011;69286;48.222;16.332;2024-03-08T11:29:37;37.67;;;18.63;;
17842;SDS011;69286;48.222;16.332;2024-03-08T11:32:07;34.17;;;16.63;;
17842;SDS011;69286;48.222;16.332;2024-03-08T11:34:35;29.70;;;14.97;;
17842;SDS011;69286;48.222;16.332;2024-03-08T11:37:03;23.03;;;12.67;;
17842;SDS011;69286;48.222;16.332;2024-03-08T11:39:34;22.77;;;11.77;;
17842;SDS011;69286;48.222;16.332;2024-03-08T11:42:03;19.97;;;11.43;;
17842;SDS011;69286;48.222;16.332;2024-03-08T11:44:31;17.80;;;10.40;;
17842;SDS011;69286;48.222;16.332;2024-03-08T11:46:59;28.10;;;14.73;;
17842;SDS011;69286;48.222;16.332;2024-03-08T11:49:27;29.50;;;14.10;;
17842;SDS011;69286;48.222;16.332;2024-03-08T11:51:54;43.77;;;19.90;;
17842;SDS011;69286;48.222;16.332;2024-03-08T11:54:22;43.77;;;19.77;;
17842;SDS011;69286;48.222;16.332;2024-03-08T11:56:51;38.63;;;18.87;;
17842;SDS011;69286;48.222;16.332;2024-03-08T11:59:20;25.03;;;12.53;;
17842;SDS011;69286;48.222;16.332;2024-03-08T12:01:59;27.93;;;13.27;;
17842;SDS011;69286;48.222;16.332;2024-03-08T12:04:30;28.17;;;14.93;;
17842;SDS011;69286;48.222;16.332;2024-03-08T12:06:59;23.50;;;13.67;;
17842;SDS011;69286;48.222;16.332;2024-03-08T12:09:27;27.10;;;13.33;;
17842;SDS011;69286;48.222;16.332;2024-03-08T12:11:54;26.07;;;13.47;;
17842;SDS011;69286;48.222;16.332;2024-03-08T12:14:21;25.00;;;13.13;;
17842;SDS011;69286;48.222;16.332;2024-03-08T12:16:50;26.63;;;13.57;;
17842;SDS011;69286;48.222;16.332;2024-03-08T12:19:17;23.17;;;13.20;;
17842;SDS011;69286;48.222;16.332;2024-03-08T12:21:46;30.00;;;12.73;;
17842;SDS011;69286;48.222;16.332;2024-03-08T12:24:15;23.73;;;12.40;;
17842;SDS011;69286;48.222;16.332;2024-03-08T12:26:45;25.30;;;12.47;;
17842;SDS011;69286;48.222;16.332;2024-03-08T12:29:20;33.03;;;13.47;;
17842;SDS011;69286;48.222;16.332;2024-03-08T12:31:53;24.27;;;13.30;;
17842;SDS011;69286;48.222;16.332;2024-03-08T12:34:23;24.77;;;13.77;;
17842;SDS011;69286;48.222;16.332;2024-03-08T12:36:53;26.33;;;14.00;;
17842;SDS011;69286;48.222;16.332;2024-03-08T12:39:22;24.07;;;13.67;;
17842;SDS011;69286;48.222;16.332;2024-03-08T12:41:52;30.23;;;14.30;;
17842;SDS011;69286;48.222;16.332;2024-03-08T12:44:19;26.97;;;14.50;;
17842;SDS011;69286;48.222;16.332;2024-03-08T12:46:47;28.73;;;15.57;;
17842;SDS011;69286;48.222;16.332;2024-03-08T12:49:16;26.10;;;13.90;;
17842;SDS011;69286;48.222;16.332;2024-03-08T12:51:43;24.73;;;13.73;;
17842;SDS011;69286;48.222;16.332;2024-03-08T12:54:12;29.07;;;14.33;;
17842;SDS011;69286;48.222;16.332;2024-03-08T12:56:40;28.07;;;13.97;;
17842;SDS011;69286;48.222;16.332;2024-03-08T12:59:07;31.80;;;14.70;;
17842;SDS011;69286;48.222;16.332;2024-03-08T13:01:35;24.90;;;13.97;;
17842;SDS011;69286;48.222;16.332;2024-03-08T13:04:03;26.60;;;14.97;;
17842;SDS011;69286;48.222;16.332;2024-03-08T13:06:31;26.97;;;13.40;;
17842;SDS011;69286;48.222;16.332;2024-03-08T13:08:59;24.97;;;13.23;;
17842;SDS011;69286;48.222;16.332;2024-03-08T13:11:31;24.83;;;13.33;;
17842;SDS011;69286;48.222;16.332;2024-03-08T13:14:02;25.37;;;13.27;;
17842;SDS011;69286;48.222;16.332;2024-03-08T13:16:30;27.33;;;13.63;;
17842;SDS011;69286;48.222;16.332;2024-03-08T13:18:58;24.77;;;12.90;;
17842;SDS011;69286;48.222;16.332;2024-03-08T13:21:25;23.40;;;13.23;;
17842;SDS011;69286;48.222;16.332;2024-03-08T13:23:54;22.67;;;12.40;;
17842;SDS011;69286;48.222;16.332;2024-03-08T13:26:23;25.00;;;12.13;;
17842;SDS011;69286;48.222;16.332;2024-03-08T13:28:56;20.10;;;11.80;;
17842;SDS011;69286;48.222;16.332;2024-03-08T13:31:24;27.33;;;12.53;;
17842;SDS011;69286;48.222;16.332;2024-03-08T13:33:51;24.83;;;12.53;;
17842;SDS011;69286;48.222;16.332;2024-03-08T13:36:23;22.00;;;12.53;;
17842;SDS011;69286;48.222;16.332;2024-03-08T13:39:00;23.43;;;11.63;;
17842;SDS011;69286;48.222;16.332;2024-03-08T13:41:35;25.27;;;12.57;;
17842;SDS011;69286;48.222;16.332;2024-03-08T13:44:06;25.27;;;12.97;;
17842;SDS011;69286;48.222;16.332;2024-03-08T13:46:33;23.30;;;12.60;;
17842;SDS011;69286;48.222;16.332;2024-03-08T13:49:03;23.73;;;12.93;;
17842;SDS011;69286;48.222;16.332;2024-03-08T13:51:33;24.43;;;13.43;;
17842;SDS011;69286;48.222;16.332;2024-03-08T13:54:00;22.90;;;12.30;;
17842;SDS011;69286;48.222;16.332;2024-03-08T13:56:32;22.47;;;11.90;;
17842;SDS011;69286;48.222;16.332;2024-03-08T13:58:59;24.97;;;12.20;;
17842;SDS011;69286;48.222;16.332;2024-03-08T14:01:31;24.43;;;12.93;;
17842;SDS011;69286;48.222;16.332;2024-03-08T14:04:01;22.83;;;12.20;;
17842;SDS011;69286;48.222;16.332;2024-03-08T14:06:29;22.60;;;13.00;;
17842;SDS011;69286;48.222;16.332;2024-03-08T14:08:56;25.60;;;13.13;;
17842;SDS011;69286;48.222;16.332;2024-03-08T14:11:23;22.63;;;12.77;;
17842;SDS011;69286;48.222;16.332;2024-03-08T14:13:50;24.87;;;13.07;;
17842;SDS011;69286;48.222;16.332;2024-03-08T14:16:18;25.17;;;13.40;;